createdAt,value
2018-09-08T00:00:30.043Z,11.80
2018-09-08T00:02:59.663Z,11.80
2018-09-08T00:05:28.201Z,11.80
2018-09-08T00:07:56.609Z,11.90
2018-09-08T00:10:24.941Z,11.90
2018-09-08T00:12:53.302Z,11.90
2018-09-08T00:15:27.019Z,12.00
2018-09-08T00:18:00.664Z,12.00
2018-09-08T00:20:34.418Z,12.00
2018-09-08T00:23:08.051Z,11.90
2018-09-08T00:25:41.693Z,11.90
2018-09-08T00:28:15.412Z,12.00
2018-09-08T00:30:43.788Z,12.00
2018-09-08T00:33:12.172Z,12.00
2018-09-08T00:35:42.842Z,12.00
2018-09-08T00:38:13.300Z,11.90
2018-09-08T00:40:43.912Z,11.90
2018-09-08T00:43:12.335Z,11.90
2018-09-08T00:45:40.715Z,11.90
2018-09-08T00:48:09.018Z,11.90
2018-09-08T00:50:37.352Z,11.80
2018-09-08T00:53:12.032Z,11.80
2018-09-08T00:55:40.343Z,11.80
2018-09-08T00:58:08.701Z,11.90
2018-09-08T01:00:37.261Z,11.90
2018-09-08T01:03:05.563Z,11.90
2018-09-08T01:05:33.896Z,12.00
2018-09-08T01:08:02.300Z,12.00
2018-09-08T01:10:30.597Z,12.00
2018-09-08T01:12:58.905Z,11.90
2018-09-08T01:15:27.271Z,11.90
2018-09-08T01:17:55.580Z,11.90
2018-09-08T01:20:24.013Z,11.90
2018-09-08T01:22:52.342Z,11.90
2018-09-08T01:25:20.696Z,11.80
2018-09-08T01:27:49.027Z,11.80
2018-09-08T01:30:17.325Z,11.80
2018-09-08T01:32:45.677Z,11.80
2018-09-08T01:35:14.093Z,11.90
2018-09-08T01:37:42.628Z,11.80
2018-09-08T01:40:11.050Z,11.80
2018-09-08T01:42:39.559Z,11.70
2018-09-08T01:45:08.707Z,11.70
2018-09-08T01:47:37.502Z,11.70
2018-09-08T01:50:05.954Z,11.70
2018-09-08T01:52:34.329Z,11.60
2018-09-08T01:55:02.694Z,11.60
2018-09-08T01:57:31.005Z,11.60
2018-09-08T01:59:59.416Z,11.60
2018-09-08T02:02:27.759Z,11.50
2018-09-08T02:04:56.105Z,11.50
2018-09-08T02:07:24.430Z,11.50
2018-09-08T02:09:52.897Z,11.50
2018-09-08T02:12:21.255Z,11.40
2018-09-08T02:14:49.559Z,11.40
2018-09-08T02:17:17.892Z,11.40
2018-09-08T02:19:46.216Z,11.40
2018-09-08T02:22:14.537Z,11.30
2018-09-08T02:24:42.887Z,11.30
2018-09-08T02:27:11.246Z,11.30
2018-09-08T02:29:39.634Z,11.20
2018-09-08T02:32:07.927Z,11.10
2018-09-08T02:34:36.306Z,11.10
2018-09-08T02:37:04.717Z,11.00
2018-09-08T02:39:33.013Z,11.00
2018-09-08T02:42:01.314Z,11.00
2018-09-08T02:44:29.642Z,11.00
2018-09-08T02:46:57.965Z,11.00
2018-09-08T02:49:35.212Z,10.90
2018-09-08T02:52:02.455Z,10.90
2018-09-08T02:54:29.725Z,10.90
2018-09-08T02:57:05.853Z,10.90
2018-09-08T02:59:33.128Z,10.90
2018-09-08T03:02:00.378Z,10.90
2018-09-08T03:04:27.629Z,10.90
2018-09-08T03:06:54.935Z,10.90
2018-09-08T03:09:22.181Z,10.90
2018-09-08T03:11:49.470Z,10.90
2018-09-08T03:14:16.734Z,11.00
2018-09-08T03:16:44.016Z,11.00
2018-09-08T03:19:11.306Z,10.90
2018-09-08T03:21:38.648Z,10.90
2018-09-08T03:24:05.934Z,10.90
2018-09-08T03:26:33.210Z,10.90
2018-09-08T03:29:00.510Z,10.90
2018-09-08T03:31:27.782Z,10.90
2018-09-08T03:33:55.056Z,10.90
2018-09-08T03:36:22.361Z,10.90
2018-09-08T03:38:49.658Z,10.90
2018-09-08T03:41:16.951Z,10.90
2018-09-08T03:43:44.262Z,10.90
2018-09-08T03:46:11.563Z,10.90
2018-09-08T03:48:38.870Z,10.90
2018-09-08T03:51:06.170Z,10.90
2018-09-08T03:53:33.488Z,10.90
2018-09-08T03:56:00.792Z,10.90
2018-09-08T03:58:28.053Z,10.90
2018-09-08T04:00:55.328Z,10.90
2018-09-08T04:03:23.785Z,10.90
2018-09-08T04:05:52.396Z,10.90
2018-09-08T04:08:20.855Z,10.90
2018-09-08T04:10:49.272Z,10.90
2018-09-08T04:13:17.703Z,10.80
2018-09-08T04:15:46.180Z,10.80
2018-09-08T04:18:14.748Z,10.80
2018-09-08T04:20:43.081Z,10.80
2018-09-08T04:23:11.428Z,10.70
2018-09-08T04:25:39.861Z,10.80
2018-09-08T04:28:08.220Z,10.80
2018-09-08T04:30:36.564Z,10.80
2018-09-08T04:33:05.075Z,10.80
2018-09-08T04:35:33.576Z,10.80
2018-09-08T04:38:01.947Z,10.80
2018-09-08T04:40:30.319Z,10.80
2018-09-08T04:42:58.657Z,10.80
2018-09-08T04:45:26.986Z,10.80
2018-09-08T04:47:55.366Z,10.80
2018-09-08T04:50:23.824Z,10.80
2018-09-08T04:52:52.152Z,10.80
2018-09-08T04:55:20.476Z,10.70
2018-09-08T04:57:49.163Z,10.70
2018-09-08T05:00:17.539Z,10.70
2018-09-08T05:02:45.861Z,10.80
2018-09-08T05:05:15.481Z,10.70
2018-09-08T05:07:44.112Z,10.70
2018-09-08T05:10:12.508Z,10.80
2018-09-08T05:12:40.863Z,10.80
2018-09-08T05:15:09.206Z,10.80
2018-09-08T05:17:37.639Z,10.90
2018-09-08T05:20:06.251Z,11.00
2018-09-08T05:22:34.596Z,11.00
2018-09-08T05:25:02.908Z,11.00
2018-09-08T05:27:31.594Z,11.00
2018-09-08T05:30:00.007Z,11.10
2018-09-08T05:32:28.385Z,11.20
2018-09-08T05:34:56.721Z,11.30
2018-09-08T05:37:25.168Z,11.50
2018-09-08T05:39:53.524Z,11.50
2018-09-08T05:42:21.955Z,11.50
2018-09-08T05:44:50.260Z,11.60
2018-09-08T05:47:18.608Z,11.70
2018-09-08T05:49:46.981Z,12.00
2018-09-08T05:52:15.332Z,12.10
2018-09-08T05:54:43.658Z,12.20
2018-09-08T05:57:12.019Z,12.40
2018-09-08T05:59:40.550Z,12.60
2018-09-08T06:02:09.020Z,12.70
2018-09-08T06:04:37.367Z,12.80
2018-09-08T06:07:06.328Z,12.90
2018-09-08T06:09:35.564Z,12.90
2018-09-08T06:12:04.134Z,12.90
2018-09-08T06:14:33.297Z,13.00
2018-09-08T06:17:01.973Z,13.10
2018-09-08T06:19:31.310Z,13.50
2018-09-08T06:21:59.639Z,13.80
2018-09-08T06:24:28.362Z,14.00
2018-09-08T06:26:56.828Z,14.20
2018-09-08T06:29:25.391Z,14.30
2018-09-08T06:31:54.497Z,14.30
2018-09-08T06:34:23.768Z,14.50
2018-09-08T06:36:52.384Z,14.80
2018-09-08T06:39:20.736Z,14.90
2018-09-08T06:41:49.060Z,15.30
2018-09-08T06:44:17.403Z,15.30
2018-09-08T06:46:45.767Z,15.40
2018-09-08T06:49:14.129Z,15.50
2018-09-08T06:51:42.473Z,15.70
2018-09-08T06:54:10.816Z,15.80
2018-09-08T06:56:39.214Z,16.30
2018-09-08T06:59:07.608Z,16.40
2018-09-08T07:01:36.048Z,16.10
2018-09-08T07:04:04.447Z,16.00
2018-09-08T07:06:32.888Z,16.30
2018-09-08T07:09:01.239Z,16.80
2018-09-08T07:11:29.631Z,17.30
2018-09-08T07:13:58.039Z,17.10
2018-09-08T07:16:26.375Z,17.30
2018-09-08T07:18:54.710Z,17.30
2018-09-08T07:21:23.101Z,17.70
2018-09-08T07:23:51.556Z,17.30
2018-09-08T07:26:20.040Z,17.40
2018-09-08T07:28:48.383Z,17.00
2018-09-08T07:31:16.819Z,17.00
2018-09-08T07:33:46.540Z,17.20
2018-09-08T07:36:15.112Z,17.30
2018-09-08T07:38:44.222Z,17.40
2018-09-08T07:41:12.620Z,17.30
2018-09-08T07:43:41.052Z,17.20
2018-09-08T07:46:10.085Z,17.50
2018-09-08T07:48:38.362Z,17.60
2018-09-08T07:51:06.955Z,17.70
2018-09-08T07:53:35.812Z,17.80
2018-09-08T07:56:04.387Z,17.60
2018-09-08T07:58:33.462Z,17.90
2018-09-08T08:01:02.233Z,18.00
2018-09-08T08:03:30.715Z,18.10
2018-09-08T08:05:59.303Z,18.20
2018-09-08T08:08:27.722Z,18.60
2018-09-08T08:11:00.256Z,18.50
2018-09-08T08:13:28.861Z,18.60
2018-09-08T08:15:57.682Z,19.00
2018-09-08T08:18:26.268Z,18.70
2018-09-08T08:20:54.829Z,18.80
2018-09-08T08:23:23.359Z,19.00
2018-09-08T08:25:51.762Z,18.60
2018-09-08T08:28:21.340Z,19.20
2018-09-08T08:30:50.640Z,19.20
2018-09-08T08:33:19.222Z,19.60
2018-09-08T08:35:48.041Z,19.50
2018-09-08T08:38:16.543Z,19.40
2018-09-08T08:40:45.507Z,19.40
2018-09-08T08:43:14.214Z,19.50
2018-09-08T08:45:42.821Z,19.40
2018-09-08T08:48:11.332Z,19.70
2018-09-08T08:50:50.848Z,20.30
2018-09-08T08:55:32.137Z,20.30
2018-09-08T08:58:00.968Z,20.40
2018-09-08T09:00:29.419Z,21.00
2018-09-08T09:02:58.030Z,21.30
2018-09-08T09:05:26.707Z,21.50
2018-09-08T09:07:55.347Z,21.20
2018-09-08T09:10:24.239Z,21.70
2018-09-08T09:12:52.772Z,21.80
2018-09-08T09:15:22.307Z,21.10
2018-09-08T09:17:50.588Z,21.00
2018-09-08T09:20:31.288Z,21.00
2018-09-08T09:23:15.775Z,21.10
2018-09-08T09:25:44.638Z,21.40
2018-09-08T09:28:13.473Z,21.60
2018-09-08T09:30:41.851Z,21.90
2018-09-08T09:33:10.201Z,21.90
2018-09-08T09:35:38.502Z,21.40
2018-09-08T09:38:07.003Z,20.90
2018-09-08T09:40:35.369Z,20.90
2018-09-08T09:43:03.715Z,20.70
2018-09-08T09:45:32.156Z,20.70
2018-09-08T09:48:00.610Z,20.80
2018-09-08T09:50:28.912Z,21.00
2018-09-08T09:52:57.271Z,21.20
2018-09-08T09:55:25.663Z,21.30
2018-09-08T09:57:54.093Z,21.30
2018-09-08T10:00:27.770Z,21.70
2018-09-08T10:03:06.765Z,22.00
2018-09-08T10:05:36.022Z,21.80
2018-09-08T10:08:04.556Z,22.00
2018-09-08T10:10:32.892Z,22.00
2018-09-08T10:13:01.352Z,21.50
2018-09-08T10:15:30.507Z,21.20
2018-09-08T10:20:58.692Z,21.00
2018-09-08T10:23:27.031Z,20.70
2018-09-08T10:25:55.410Z,20.50
2018-09-08T10:28:23.760Z,20.30
2018-09-08T10:30:52.111Z,20.20
2018-09-08T10:33:20.503Z,20.40
2018-09-08T10:35:48.851Z,20.10
2018-09-08T10:38:17.256Z,20.20
2018-09-08T10:40:49.732Z,20.50
2018-09-08T10:43:20.531Z,20.60
2018-09-08T10:45:48.966Z,20.30
2018-09-08T10:48:17.349Z,20.30
2018-09-08T10:50:45.739Z,20.60
2018-09-08T10:53:14.081Z,20.70
2018-09-08T10:55:42.410Z,20.80
2018-09-08T10:58:10.893Z,21.00
2018-09-08T11:00:39.486Z,20.60
2018-09-08T11:03:08.114Z,20.70
2018-09-08T11:05:36.567Z,20.70
2018-09-08T11:08:06.007Z,20.40
2018-09-08T11:10:34.417Z,20.20
2018-09-08T11:13:02.739Z,20.00
2018-09-08T11:15:31.179Z,19.90
2018-09-08T11:17:59.612Z,20.00
2018-09-08T11:20:27.925Z,20.10
2018-09-08T11:22:56.274Z,20.20
2018-09-08T11:25:24.662Z,20.30
2018-09-08T11:27:52.960Z,20.40
2018-09-08T11:30:21.349Z,20.80
2018-09-08T11:35:24.459Z,20.80
2018-09-08T11:37:52.820Z,20.70
2018-09-08T11:40:21.207Z,20.70
2018-09-08T11:42:49.556Z,20.30
2018-09-08T11:45:17.998Z,20.20
2018-09-08T11:47:46.505Z,20.30
2018-09-08T11:50:15.023Z,20.20
2018-09-08T11:52:43.543Z,20.00
2018-09-08T11:55:11.913Z,19.90
2018-09-08T11:57:40.498Z,19.80
2018-09-08T12:00:08.981Z,19.80
2018-09-08T12:02:37.448Z,19.90
2018-09-08T12:05:06.000Z,19.90
2018-09-08T12:07:38.064Z,20.10
2018-09-08T12:10:06.677Z,20.20
2018-09-08T12:12:35.087Z,20.30
2018-09-08T12:15:03.480Z,20.10
2018-09-08T12:17:31.926Z,20.10
2018-09-08T12:20:00.411Z,20.30
2018-09-08T12:22:29.365Z,20.90
2018-09-08T12:24:57.959Z,21.20
2018-09-08T12:27:26.460Z,21.40
2018-09-08T12:29:56.109Z,21.40
2018-09-08T12:32:24.569Z,21.50
2018-09-08T12:34:53.072Z,21.60
2018-09-08T12:37:23.113Z,21.50
2018-09-08T12:39:51.571Z,21.50
2018-09-08T12:42:20.158Z,21.20
2018-09-08T12:44:48.589Z,20.90
2018-09-08T12:47:17.096Z,20.80
2018-09-08T12:49:46.691Z,21.10
2018-09-08T12:52:15.363Z,21.10
2018-09-08T12:54:43.819Z,21.20
2018-09-08T12:57:12.352Z,20.90
2018-09-08T12:59:40.730Z,20.60
2018-09-08T13:02:09.252Z,20.80
2018-09-08T13:04:37.660Z,20.90
2018-09-08T13:07:06.311Z,20.80
2018-09-08T13:09:34.633Z,20.90
2018-09-08T13:12:03.067Z,20.90
2018-09-08T13:14:31.585Z,20.70
2018-09-08T13:17:00.026Z,20.80
2018-09-08T13:19:28.373Z,21.30
2018-09-08T13:21:56.783Z,21.70
2018-09-08T13:24:25.217Z,22.00
2018-09-08T13:26:54.710Z,22.60
2018-09-08T13:29:23.533Z,22.70
2018-09-08T13:31:52.004Z,22.20
2018-09-08T13:34:20.429Z,21.50
2018-09-08T13:36:48.739Z,21.20
2018-09-08T13:39:17.120Z,20.90
2018-09-08T13:41:46.016Z,20.90
2018-09-08T13:44:14.510Z,21.00
2018-09-08T13:46:43.106Z,21.50
2018-09-08T13:49:12.464Z,22.30
2018-09-08T13:51:40.899Z,23.10
2018-09-08T13:54:09.424Z,23.70
2018-09-08T13:56:44.555Z,23.80
2018-09-08T13:59:13.096Z,23.30
2018-09-08T14:01:41.636Z,22.90
2018-09-08T14:04:11.235Z,22.70
2018-09-08T14:06:39.810Z,22.80
2018-09-08T14:09:08.345Z,23.00
2018-09-08T14:11:36.881Z,23.20
2018-09-08T14:14:05.413Z,23.30
2018-09-08T14:16:34.017Z,22.70
2018-09-08T14:19:02.464Z,22.30
2018-09-08T14:21:31.325Z,21.90
2018-09-08T14:23:59.787Z,21.80
2018-09-08T14:26:29.002Z,21.80
2018-09-08T14:28:57.369Z,22.00
2018-09-08T14:31:25.769Z,22.00
2018-09-08T14:33:54.588Z,22.10
2018-09-08T14:36:23.822Z,22.50
2018-09-08T14:38:52.488Z,22.80
2018-09-08T14:41:22.189Z,22.90
2018-09-08T14:43:50.650Z,23.30
2018-09-08T14:46:19.324Z,23.50
2018-09-08T14:48:48.887Z,23.30
2018-09-08T14:51:17.373Z,23.40
2018-09-08T14:53:45.886Z,23.50
2018-09-08T14:56:14.324Z,23.20
2018-09-08T14:58:42.784Z,23.10
2018-09-08T15:01:11.532Z,23.40
2018-09-08T15:03:40.285Z,23.20
2018-09-08T15:06:08.766Z,23.00
2018-09-08T15:08:39.146Z,22.90
2018-09-08T15:11:07.639Z,22.80
2018-09-08T15:13:36.057Z,22.60
2018-09-08T15:16:05.483Z,22.10
2018-09-08T15:18:35.611Z,21.70
2018-09-08T15:21:04.099Z,21.40
2018-09-08T15:23:33.926Z,21.10
2018-09-08T15:26:02.583Z,20.90
2018-09-08T15:28:31.659Z,20.80
2018-09-08T15:31:00.323Z,20.80
2018-09-08T15:33:31.020Z,20.40
2018-09-08T15:35:59.524Z,20.30
2018-09-08T15:38:28.295Z,20.10
2018-09-08T15:40:56.891Z,20.20
2018-09-08T15:43:25.628Z,20.00
2018-09-08T15:45:54.086Z,19.90
2018-09-08T15:48:23.661Z,19.80
2018-09-08T15:50:52.060Z,19.70
2018-09-08T15:53:20.537Z,19.70
2018-09-08T15:55:49.965Z,19.70
2018-09-08T15:58:18.508Z,19.70
2018-09-08T16:00:47.089Z,19.70
2018-09-08T16:03:16.230Z,19.70
2018-09-08T16:05:44.647Z,19.60
2018-09-08T16:08:13.325Z,19.70
2018-09-08T16:10:42.029Z,19.60
2018-09-08T16:13:11.842Z,19.40
2018-09-08T16:15:40.503Z,19.30
2018-09-08T16:18:08.971Z,19.30
2018-09-08T16:20:38.396Z,19.30
2018-09-08T16:23:06.915Z,19.20
2018-09-08T16:25:35.304Z,19.20
2018-09-08T16:28:04.001Z,19.20
2018-09-08T16:30:32.563Z,19.20
2018-09-08T16:33:00.923Z,19.10
2018-09-08T16:35:29.377Z,19.10
2018-09-08T16:37:57.776Z,19.10
2018-09-08T16:40:26.183Z,19.00
2018-09-08T16:42:54.575Z,19.00
2018-09-08T16:45:23.039Z,18.90
2018-09-08T16:47:51.460Z,18.90
2018-09-08T16:50:20.013Z,18.90
2018-09-08T16:52:48.570Z,18.80
2018-09-08T16:55:17.197Z,18.80
2018-09-08T16:57:45.708Z,18.80
2018-09-08T17:00:14.448Z,18.80
2018-09-08T17:02:42.985Z,18.80
2018-09-08T17:05:11.700Z,18.80
2018-09-08T17:07:40.328Z,18.80
2018-09-08T17:10:08.779Z,18.80
2018-09-08T17:12:37.239Z,18.80
2018-09-08T17:15:06.416Z,18.70
2018-09-08T17:17:35.080Z,18.70
2018-09-08T17:20:03.639Z,18.70
2018-09-08T17:22:32.130Z,18.60
2018-09-08T17:25:00.515Z,18.60
2018-09-08T17:27:29.138Z,18.50
2018-09-08T17:29:57.781Z,18.50
2018-09-08T17:32:26.284Z,18.40
2018-09-08T17:34:54.863Z,18.30
2018-09-08T17:37:23.774Z,18.30
2018-09-08T17:39:52.488Z,18.20
2018-09-08T17:42:21.920Z,18.20
2018-09-08T17:44:50.384Z,18.10
2018-09-08T17:47:18.728Z,18.10
2018-09-08T17:49:47.375Z,18.00
2018-09-08T17:52:15.764Z,18.00
2018-09-08T17:54:44.232Z,17.90
2018-09-08T17:57:12.793Z,17.90
2018-09-08T17:59:41.763Z,17.80
2018-09-08T18:02:10.230Z,17.80
2018-09-08T18:04:39.742Z,17.80
2018-09-08T18:07:09.018Z,17.70
2018-09-08T18:09:37.529Z,17.70
2018-09-08T18:12:06.176Z,17.70
2018-09-08T18:17:33.122Z,17.60
2018-09-08T18:20:01.604Z,17.50
2018-09-08T18:22:35.191Z,17.50
2018-09-08T18:25:03.657Z,17.50
2018-09-08T18:27:33.155Z,17.40
2018-09-08T18:30:02.570Z,17.40
2018-09-08T18:32:30.999Z,17.40
2018-09-08T18:34:59.493Z,17.40
2018-09-08T18:37:27.985Z,17.30
2018-09-08T18:39:58.372Z,17.30
2018-09-08T18:42:27.932Z,17.30
2018-09-08T18:44:56.540Z,17.20
2018-09-08T18:47:26.019Z,17.20
2018-09-08T18:49:54.426Z,17.10
2018-09-08T18:52:22.860Z,17.00
2018-09-08T18:54:52.175Z,17.00
2018-09-08T18:57:20.829Z,16.90
2018-09-08T18:59:49.520Z,16.90
2018-09-08T19:02:18.564Z,16.80
2018-09-08T19:04:47.251Z,16.80
2018-09-08T19:07:17.400Z,16.70
2018-09-08T19:09:50.760Z,16.70
2018-09-08T19:12:19.396Z,16.70
2018-09-08T19:14:53.561Z,16.60
2018-09-08T19:17:22.435Z,16.60
2018-09-08T19:19:55.444Z,16.60
2018-09-08T19:22:24.245Z,16.50
2018-09-08T19:24:52.986Z,16.50
2018-09-08T19:27:21.601Z,16.40
2018-09-08T19:29:50.224Z,16.40
2018-09-08T19:32:20.805Z,16.30
2018-09-08T19:34:54.798Z,16.20
2018-09-08T19:37:23.449Z,16.20
2018-09-08T19:39:52.078Z,16.20
2018-09-08T19:42:20.663Z,16.10
2018-09-08T19:45:52.511Z,16.10
2018-09-08T19:48:21.944Z,16.10
2018-09-08T19:50:50.679Z,16.10
2018-09-08T19:53:25.220Z,16.00
2018-09-08T19:55:54.024Z,16.00
2018-09-08T19:58:27.774Z,16.00
2018-09-08T20:00:56.120Z,15.90
2018-09-08T20:03:24.680Z,15.90
2018-09-08T20:05:52.987Z,15.90
2018-09-08T20:08:21.468Z,15.90
2018-09-08T20:10:50.813Z,15.80
2018-09-08T20:13:19.254Z,15.80
2018-09-08T20:15:48.360Z,15.80
2018-09-08T20:18:16.875Z,15.70
2018-09-08T20:20:45.654Z,15.70
2018-09-08T20:23:14.618Z,15.70
2018-09-08T20:25:43.752Z,15.60
2018-09-08T20:28:12.537Z,15.60
2018-09-08T20:30:41.326Z,15.60
2018-09-08T20:33:10.452Z,15.50
2018-09-08T20:35:39.819Z,15.50
2018-09-08T20:38:08.339Z,15.40
2018-09-08T20:40:37.078Z,15.40
2018-09-08T20:43:05.564Z,15.40
2018-09-08T20:45:34.150Z,15.30
2018-09-08T20:48:02.942Z,15.30
2018-09-08T20:50:31.488Z,15.30
2018-09-08T20:53:00.326Z,15.20
2018-09-08T20:55:29.048Z,15.20
2018-09-08T20:57:57.786Z,15.10
2018-09-08T21:00:26.267Z,15.10
2018-09-08T21:02:54.751Z,15.10
2018-09-08T21:05:23.129Z,15.10
2018-09-08T21:07:51.634Z,15.00
2018-09-08T21:10:20.215Z,15.00
2018-09-08T21:12:48.799Z,15.00
2018-09-08T21:15:17.243Z,15.00
2018-09-08T21:17:45.712Z,14.90
2018-09-08T21:20:14.298Z,14.90
2018-09-08T21:22:42.746Z,14.90
2018-09-08T21:25:11.144Z,14.90
2018-09-08T21:27:40.583Z,14.90
2018-09-08T21:30:08.982Z,14.80
2018-09-08T21:32:37.365Z,14.80
2018-09-08T21:35:05.849Z,14.70
2018-09-08T21:37:34.677Z,14.70
2018-09-08T21:40:03.262Z,14.60
2018-09-08T21:42:31.728Z,14.60
2018-09-08T21:45:00.252Z,14.60
2018-09-08T21:47:28.647Z,14.60
2018-09-08T21:49:57.047Z,14.60
2018-09-08T21:52:25.544Z,14.60
2018-09-08T21:54:54.302Z,14.60
2018-09-08T21:57:22.718Z,14.60
2018-09-08T21:59:51.048Z,14.60
2018-09-08T22:02:19.446Z,14.60
2018-09-08T22:04:47.827Z,14.60
2018-09-08T22:07:17.210Z,14.60
2018-09-08T22:09:45.727Z,14.60
2018-09-08T22:12:14.254Z,14.60
2018-09-08T22:14:42.621Z,14.60
2018-09-08T22:17:10.993Z,14.60
2018-09-08T22:19:39.464Z,14.50
2018-09-08T22:22:07.868Z,14.50
2018-09-08T22:24:36.237Z,14.50
2018-09-08T22:27:04.640Z,14.50
2018-09-08T22:29:32.995Z,14.50
2018-09-08T22:32:02.163Z,14.50
2018-09-08T22:34:30.551Z,14.50
2018-09-08T22:36:59.119Z,14.50
2018-09-08T22:39:27.443Z,14.50
2018-09-08T22:41:55.831Z,14.50
2018-09-08T22:44:27.352Z,14.50
2018-09-08T22:46:55.667Z,14.50
2018-09-08T22:49:24.051Z,14.40
2018-09-08T22:51:52.451Z,14.40
2018-09-08T22:54:22.083Z,14.40
2018-09-08T22:56:50.844Z,14.40
2018-09-08T22:59:20.217Z,14.40
2018-09-08T23:01:49.512Z,14.30
2018-09-08T23:04:18.154Z,14.30
2018-09-08T23:06:46.543Z,14.30
2018-09-08T23:09:14.869Z,14.30
2018-09-08T23:11:49.763Z,14.30
2018-09-08T23:14:18.111Z,14.30
2018-09-08T23:16:46.989Z,14.30
2018-09-08T23:19:16.186Z,14.30
2018-09-08T23:21:44.576Z,14.30
2018-09-08T23:24:14.681Z,14.20
2018-09-08T23:26:43.131Z,14.20
2018-09-08T23:29:11.537Z,14.20
2018-09-08T23:31:39.900Z,14.10
2018-09-08T23:34:08.318Z,14.10
2018-09-08T23:36:36.613Z,14.10
2018-09-08T23:39:06.195Z,14.10
2018-09-08T23:41:34.582Z,14.10
2018-09-08T23:44:02.934Z,14.10
2018-09-08T23:46:31.240Z,14.10
2018-09-08T23:48:59.641Z,14.10
2018-09-08T23:51:28.066Z,14.10
2018-09-08T23:53:56.422Z,14.10
2018-09-08T23:56:24.738Z,14.10
2018-09-08T23:58:53.091Z,14.10
